Time;durP1;ratioP1;P1;durP2;ratioP2;P2;SDS_P1;SDS_P2;PMS_P1;PMS_P2;Temp;Humidity;BMP_temperature;BMP_pressure;BME280_temperature;BME280_humidity;BME280_pressure;Samples;Min_cycle;Max_cycle;Signal;HPM_P1;HPM_P2
2022/07/14 00:00:51;;;;;;;4.85;1.77;;;24.80;44.20;;;;;;4982304;28;20055;-47
2022/07/14 00:03:20;;;;;;;3.17;2.10;;;24.80;44.10;;;;;;4982935;28;20092;-47
2022/07/14 00:05:48;;;;;;;2.75;1.83;;;24.80;44.30;;;;;;4981282;28;20054;-48
2022/07/14 00:08:15;;;;;;;4.93;2.15;;;24.70;44.30;;;;;;4983779;28;20054;-45
2022/07/14 00:10:43;;;;;;;3.30;1.77;;;24.70;44.20;;;;;;4983236;28;20412;-47
2022/07/14 00:13:10;;;;;;;4.50;1.90;;;24.60;44.30;;;;;;4983286;28;20054;-50
2022/07/14 00:15:38;;;;;;;3.30;1.77;;;24.60;44.40;;;;;;4979687;28;20050;-50
2022/07/14 00:18:06;;;;;;;4.18;2.00;;;24.50;44.50;;;;;;4983231;28;20058;-46
2022/07/14 00:20:35;;;;;;;5.65;1.95;;;24.50;44.80;;;;;;4982167;28;20054;-53
2022/07/14 00:23:02;;;;;;;9.05;2.28;;;24.50;44.80;;;;;;4983737;28;20069;-46
2022/07/14 00:25:30;;;;;;;7.38;2.13;;;24.50;44.90;;;;;;4979582;28;20046;-47
2022/07/14 00:27:58;;;;;;;5.63;1.85;;;24.40;44.90;;;;;;4981745;28;20069;-49
2022/07/14 00:30:25;;;;;;;3.30;1.83;;;24.40;45.00;;;;;;4981316;28;20058;-49
2022/07/14 00:32:54;;;;;;;2.97;1.70;;;24.40;45.20;;;;;;4982101;28;20057;-46
2022/07/14 00:35:21;;;;;;;3.35;1.80;;;24.40;45.20;;;;;;4981799;28;20057;-53
2022/07/14 00:37:50;;;;;;;4.53;1.80;;;24.30;45.00;;;;;;4983330;28;20055;-53
2022/07/14 00:40:18;;;;;;;3.58;1.88;;;24.40;45.20;;;;;;4983351;28;20058;-47
2022/07/14 00:42:47;;;;;;;5.05;2.22;;;24.30;45.30;;;;;;4982157;28;20061;-46
2022/07/14 00:45:16;;;;;;;5.80;2.45;;;24.30;45.60;;;;;;4981977;28;20054;-46
2022/07/14 00:47:46;;;;;;;4.53;2.20;;;24.30;45.60;;;;;;4981559;28;20525;-47
2022/07/14 00:50:15;;;;;;;4.75;2.53;;;24.20;45.70;;;;;;4981452;28;20073;-52
2022/07/14 00:52:44;;;;;;;4.30;2.17;;;24.20;45.80;;;;;;4981711;28;20054;-48
2022/07/14 00:55:14;;;;;;;4.72;2.22;;;24.20;45.80;;;;;;4982419;28;20057;-49
2022/07/14 00:57:42;;;;;;;5.30;2.50;;;24.10;45.90;;;;;;4979784;28;20588;-50
2022/07/14 01:00:17;;;;;;;5.00;2.70;;;24.10;46.20;;;;;;4980781;28;20391;-47
2022/07/14 01:02:46;;;;;;;6.90;2.88;;;24.00;46.30;;;;;;4981483;28;20065;-49
2022/07/14 01:05:14;;;;;;;8.50;2.60;;;24.00;46.40;;;;;;4981667;28;20062;-46
2022/07/14 01:07:41;;;;;;;4.20;2.80;;;23.90;46.40;;;;;;4981873;28;20409;-48
2022/07/14 01:10:10;;;;;;;6.50;2.20;;;23.80;46.60;;;;;;4982318;28;20062;-48
2022/07/14 01:12:44;;;;;;;9.05;2.55;;;23.80;46.80;;;;;;4980574;28;20268;-51
2022/07/14 01:15:12;;;;;;;;;;;23.70;46.90;;;;;;4982082;28;20058;-49
2022/07/14 01:17:39;;;;;;;6.28;2.90;;;23.70;46.80;;;;;;4981399;28;19921;-53
2022/07/14 01:20:08;;;;;;;4.78;2.60;;;23.70;47.10;;;;;;4982219;28;20062;-49
2022/07/14 01:22:37;;;;;;;3.53;2.10;;;23.60;47.40;;;;;;4981110;28;20501;-47
2022/07/14 01:25:06;;;;;;;7.90;2.90;;;23.60;47.40;;;;;;4982525;28;20050;-46
2022/07/14 01:27:34;;;;;;;4.05;2.40;;;23.50;47.70;;;;;;4980746;28;20050;-52
2022/07/14 01:30:02;;;;;;;5.18;2.85;;;23.40;47.90;;;;;;4980419;28;20058;-46
2022/07/14 01:32:29;;;;;;;7.72;2.60;;;23.40;48.20;;;;;;4980056;28;20062;-48
2022/07/14 01:34:57;;;;;;;6.68;2.75;;;23.30;48.30;;;;;;4981913;28;20065;-48
2022/07/14 01:37:24;;;;;;;5.55;3.05;;;23.20;48.50;;;;;;4979822;28;20058;-50
2022/07/14 01:39:53;;;;;;;6.20;3.13;;;23.20;48.70;;;;;;4980664;28;20065;-49
2022/07/14 01:42:21;;;;;;;6.28;3.42;;;23.10;49.50;;;;;;4984778;28;20054;-47
2022/07/14 01:44:48;;;;;;;7.32;3.28;;;23.00;49.30;;;;;;4985507;28;20058;-46
2022/07/14 01:47:15;;;;;;;6.00;3.50;;;22.90;49.40;;;;;;4983118;28;20046;-46
2022/07/14 01:49:43;;;;;;;10.93;3.60;;;22.80;49.60;;;;;;4985543;28;20058;-48
2022/07/14 01:52:10;;;;;;;4.47;3.00;;;22.70;49.80;;;;;;4982661;28;20525;-53
2022/07/14 01:54:38;;;;;;;5.15;3.13;;;22.70;50.10;;;;;;4983710;28;20054;-52
2022/07/14 01:57:07;;;;;;;7.15;3.08;;;22.60;50.30;;;;;;4984885;28;20055;-52
2022/07/14 01:59:34;;;;;;;10.27;3.42;;;22.60;50.50;;;;;;4984814;28;20121;-52
2022/07/14 02:02:02;;;;;;;9.35;3.50;;;22.50;50.70;;;;;;4984621;28;20058;-50
2022/07/14 02:04:29;;;;;;;8.15;3.03;;;22.50;51.00;;;;;;4984510;28;20074;-49
2022/07/14 02:06:57;;;;;;;5.65;2.97;;;22.40;51.60;;;;;;4984294;28;20050;-50
2022/07/14 02:12:10;;;;;;;8.98;3.47;;;22.40;51.30;;;;;;4985860;28;20058;-48
2022/07/14 02:12:13;;;;;;;6.13;3.00;;;22.30;51.40;;;;;;4985235;28;20065;-55
2022/07/14 02:14:41;;;;;;;7.90;3.45;;;22.30;51.60;;;;;;4984295;28;20049;-50
2022/07/14 02:17:09;;;;;;;8.80;4.03;;;22.30;51.80;;;;;;4981699;28;20050;-50
2022/07/14 02:19:37;;;;;;;7.38;3.70;;;22.20;51.90;;;;;;4984748;28;20081;-51
2022/07/14 02:22:05;;;;;;;7.93;3.25;;;22.20;51.80;;;;;;4985962;28;20061;-48
2022/07/14 02:24:33;;;;;;;6.80;3.80;;;22.20;51.90;;;;;;4983820;28;20050;-52
2022/07/14 02:27:00;;;;;;;8.48;3.58;;;22.20;51.90;;;;;;4982910;28;20066;-49
2022/07/14 02:29:29;;;;;;;8.93;3.60;;;22.20;52.30;;;;;;4984552;28;20054;-51
2022/07/14 02:31:57;;;;;;;8.70;4.00;;;22.20;52.30;;;;;;4983195;28;20057;-52
2022/07/14 02:34:24;;;;;;;6.55;3.40;;;22.10;52.40;;;;;;4985266;28;20058;-48
2022/07/14 02:36:52;;;;;;;5.93;3.47;;;22.20;52.40;;;;;;4984333;28;20402;-47
2022/07/14 02:39:19;;;;;;;6.35;3.22;;;22.20;52.40;;;;;;4982187;28;20062;-47
2022/07/14 02:41:47;;;;;;;8.77;3.63;;;22.20;52.50;;;;;;4984782;28;20081;-54
2022/07/14 02:44:14;;;;;;;7.63;3.63;;;22.20;52.50;;;;;;4983334;28;20055;-52
2022/07/14 02:46:43;;;;;;;6.60;3.70;;;22.20;52.70;;;;;;4982703;28;20066;-48
2022/07/14 02:49:10;;;;;;;11.45;3.83;;;22.10;52.90;;;;;;4983933;28;20502;-48
2022/07/14 02:51:38;;;;;;;7.22;3.92;;;22.10;52.90;;;;;;4983811;28;20057;-47
2022/07/14 02:54:05;;;;;;;7.80;4.53;;;22.00;52.90;;;;;;4984457;28;20513;-54
2022/07/14 02:56:33;;;;;;;9.20;3.60;;;22.00;53.00;;;;;;4981913;28;20053;-53
2022/07/14 02:59:01;;;;;;;11.23;4.70;;;22.00;53.10;;;;;;4982553;28;20046;-48
2022/07/14 03:01:29;;;;;;;7.90;4.05;;;22.00;53.20;;;;;;4983888;28;20054;-46
2022/07/14 03:03:57;;;;;;;9.32;3.90;;;22.00;53.20;;;;;;4985068;28;20062;-46
2022/07/14 03:06:25;;;;;;;11.52;4.35;;;22.00;53.50;;;;;;4983256;28;20054;-50
2022/07/14 03:08:52;;;;;;;7.10;3.65;;;22.00;53.50;;;;;;4984181;28;20061;-49
2022/07/14 03:11:20;;;;;;;10.63;4.80;;;21.90;53.50;;;;;;4981850;28;20058;-49
2022/07/14 03:13:47;;;;;;;12.15;4.30;;;21.90;53.70;;;;;;4984392;28;20417;-48
2022/07/14 03:16:15;;;;;;;8.75;4.68;;;21.80;53.80;;;;;;4981855;28;20062;-48
2022/07/14 03:18:42;;;;;;;14.48;4.75;;;21.80;53.90;;;;;;4983983;28;20058;-48
2022/07/14 03:21:13;;;;;;;13.50;5.00;;;21.70;53.90;;;;;;4983616;28;20062;-50
2022/07/14 03:23:41;;;;;;;14.93;4.70;;;21.70;54.30;;;;;;4977723;28;20062;-53
2022/07/14 03:26:09;;;;;;;15.93;5.85;;;21.70;54.20;;;;;;4977971;28;20387;-46
2022/07/14 03:28:37;;;;;;;9.85;4.88;;;21.70;54.40;;;;;;4982038;28;20077;-48
2022/07/14 03:31:04;;;;;;;11.20;5.63;;;21.70;54.40;;;;;;4981066;28;20077;-46
2022/07/14 03:33:32;;;;;;;10.95;4.68;;;21.70;54.50;;;;;;4982045;28;20108;-53
2022/07/14 03:35:59;;;;;;;10.02;5.18;;;21.70;54.70;;;;;;4983236;28;20425;-50
2022/07/14 03:38:28;;;;;;;14.07;4.95;;;21.60;54.60;;;;;;4981538;28;20057;-47
2022/07/14 03:40:56;;;;;;;21.55;6.22;;;21.60;54.80;;;;;;4979681;28;20066;-47
2022/07/14 03:43:23;;;;;;;13.05;5.15;;;21.50;55.10;;;;;;4982349;28;20533;-49
2022/07/14 03:45:51;;;;;;;13.65;5.25;;;21.50;55.00;;;;;;4981382;28;20097;-46
2022/07/14 03:48:19;;;;;;;13.73;5.50;;;21.50;55.20;;;;;;4983565;28;20422;-53
2022/07/14 03:50:47;;;;;;;8.95;5.25;;;21.40;55.40;;;;;;4982392;28;20454;-53
2022/07/14 03:53:14;;;;;;;15.20;5.20;;;21.40;55.50;;;;;;4982030;28;20054;-48
2022/07/14 03:55:45;;;;;;;17.08;5.43;;;21.40;55.60;;;;;;4975402;28;20058;-50
2022/07/14 03:58:12;;;;;;;16.90;5.45;;;21.30;55.70;;;;;;4981187;28;20050;-53
2022/07/14 04:00:40;;;;;;;14.80;5.72;;;21.30;55.80;;;;;;4980245;28;20494;-50
2022/07/14 04:03:07;;;;;;;10.48;4.88;;;21.30;55.80;;;;;;4984018;28;20061;-48
2022/07/14 04:05:35;;;;;;;15.20;4.78;;;21.30;55.90;;;;;;4981939;28;20057;-48
2022/07/14 04:08:02;;;;;;;12.80;4.97;;;21.20;56.00;;;;;;4983710;28;20058;-52
2022/07/14 04:10:30;;;;;;;11.35;4.75;;;21.20;56.20;;;;;;4984066;28;20065;-48
2022/07/14 04:12:59;;;;;;;17.17;4.97;;;21.20;56.30;;;;;;4982972;28;20054;-50
2022/07/14 04:15:27;;;;;;;12.15;4.95;;;21.20;56.50;;;;;;4983165;28;20399;-53
2022/07/14 04:17:54;;;;;;;14.45;4.97;;;21.10;56.50;;;;;;4978686;28;20563;-47
2022/07/14 04:20:22;;;;;;;10.57;4.82;;;21.10;56.50;;;;;;4982891;28;20471;-48
2022/07/14 04:22:50;;;;;;;10.73;4.60;;;21.10;56.60;;;;;;4982699;28;20521;-52
2022/07/14 04:25:17;;;;;;;10.85;4.88;;;21.10;56.80;;;;;;4981295;28;20061;-49
2022/07/14 04:27:45;;;;;;;9.30;4.32;;;21.10;57.00;;;;;;4978312;28;20057;-47
2022/07/14 04:30:15;;;;;;;11.48;4.82;;;21.10;56.90;;;;;;4980763;28;20058;-50
2022/07/14 04:32:42;;;;;;;20.60;4.70;;;21.10;57.00;;;;;;4981144;28;20517;-51
2022/07/14 04:35:11;;;;;;;13.68;4.78;;;21.00;57.00;;;;;;4978165;28;20050;-48
2022/07/14 04:37:39;;;;;;;11.73;5.00;;;21.00;57.10;;;;;;4971093;28;20414;-52
2022/07/14 04:40:08;;;;;;;13.13;4.80;;;21.00;57.20;;;;;;4980056;28;20055;-50
2022/07/14 04:42:35;;;;;;;6.07;4.07;;;21.00;57.10;;;;;;4981035;28;20706;-48
2022/07/14 04:45:03;;;;;;;10.38;4.35;;;21.00;57.10;;;;;;4976793;28;20058;-52
2022/07/14 04:47:32;;;;;;;15.38;5.25;;;21.10;57.20;;;;;;4970330;28;20061;-49
2022/07/14 04:52:47;;;;;;;14.50;5.72;;;21.10;57.10;;;;;;4986312;28;20069;-49
2022/07/14 04:55:15;;;;;;;13.23;4.85;;;21.10;57.10;;;;;;4978098;28;20078;-47
2022/07/14 04:57:43;;;;;;;12.38;4.50;;;21.10;57.10;;;;;;4975488;28;20062;-48
2022/07/14 05:00:11;;;;;;;14.88;5.22;;;21.10;57.10;;;;;;4980921;28;20497;-51
2022/07/14 05:02:40;;;;;;;17.15;5.43;;;21.20;57.20;;;;;;4981658;28;20057;-50
2022/07/14 05:05:08;;;;;;;13.48;5.15;;;21.20;57.30;;;;;;4981086;28;20081;-46
2022/07/14 05:07:36;;;;;;;12.60;5.35;;;21.20;57.30;;;;;;4977725;28;20061;-49
2022/07/14 05:10:06;;;;;;;11.90;5.00;;;21.20;57.10;;;;;;4980357;28;20065;-51
2022/07/14 05:12:33;;;;;;;10.05;4.68;;;21.20;57.20;;;;;;4975891;28;20054;-53
2022/07/14 05:15:01;;;;;;;11.95;4.38;;;21.20;57.20;;;;;;4981787;28;20058;-48
2022/07/14 05:17:29;;;;;;;12.23;4.28;;;21.20;57.30;;;;;;4979019;28;20051;-54
2022/07/14 05:19:58;;;;;;;12.80;5.07;;;21.20;57.30;;;;;;4978654;28;20061;-52
2022/07/14 05:22:26;;;;;;;11.10;4.50;;;21.20;57.60;;;;;;4981775;28;20502;-50
2022/07/14 05:24:53;;;;;;;13.45;4.85;;;21.20;57.70;;;;;;4979965;28;20494;-55
2022/07/14 05:27:21;;;;;;;14.40;5.00;;;21.20;57.80;;;;;;4977719;28;20046;-52
2022/07/14 05:29:48;;;;;;;11.75;5.28;;;21.20;57.90;;;;;;4980360;28;20054;-50
2022/07/14 05:32:18;;;;;;;11.80;4.97;;;21.20;57.90;;;;;;4977950;28;20058;-53
2022/07/14 05:34:46;;;;;;;15.10;5.68;;;21.20;58.00;;;;;;4977637;28;20073;-50
2022/07/14 05:37:15;;;;;;;14.07;5.18;;;21.20;58.20;;;;;;4977853;28;20406;-54
2022/07/14 05:39:42;;;;;;;13.80;6.60;;;21.20;58.30;;;;;;4979508;28;20150;-49
2022/07/14 05:42:10;;;;;;;15.73;5.35;;;21.20;58.40;;;;;;4980226;28;20054;-50
2022/07/14 05:44:37;;;;;;;17.58;5.45;;;21.20;58.50;;;;;;4981864;28;20061;-51
2022/07/14 05:47:05;;;;;;;18.80;6.15;;;21.20;58.40;;;;;;4977194;28;20061;-52
2022/07/14 05:49:34;;;;;;;16.60;5.03;;;21.20;58.40;;;;;;4981123;28;20057;-50
2022/07/14 05:52:02;;;;;;;9.45;4.15;;;21.20;58.30;;;;;;4979384;28;20422;-49
2022/07/14 05:54:31;;;;;;;18.25;5.80;;;21.30;58.30;;;;;;4981940;28;20065;-51
2022/07/14 05:56:59;;;;;;;18.20;5.90;;;21.30;58.30;;;;;;4979106;28;20517;-51
2022/07/14 05:59:26;;;;;;;11.07;4.55;;;21.30;58.50;;;;;;4980052;28;20549;-49
2022/07/14 06:01:54;;;;;;;11.30;4.32;;;21.40;58.30;;;;;;4975070;28;20050;-49
2022/07/14 06:04:21;;;;;;;10.45;4.38;;;21.40;58.10;;;;;;4981918;28;20062;-48
2022/07/14 06:06:49;;;;;;;18.17;5.53;;;21.40;58.10;;;;;;4979090;28;20062;-50
2022/07/14 06:09:17;;;;;;;13.20;5.00;;;21.40;58.20;;;;;;4979800;28;20046;-53
2022/07/14 06:11:46;;;;;;;13.07;5.10;;;21.50;58.00;;;;;;4979186;28;20053;-50
2022/07/14 06:14:14;;;;;;;14.23;4.60;;;21.50;58.10;;;;;;4980447;28;20059;-48
2022/07/14 06:16:42;;;;;;;12.00;5.28;;;21.60;58.00;;;;;;4976123;28;20054;-50
2022/07/14 06:19:10;;;;;;;16.77;6.25;;;21.60;58.00;;;;;;4981133;28;20509;-54
2022/07/14 06:21:39;;;;;;;16.52;5.15;;;21.60;58.00;;;;;;4979461;28;20058;-49
2022/07/14 06:24:09;;;;;;;18.27;6.05;;;21.60;57.90;;;;;;4981026;28;20059;-51
2022/07/14 06:26:37;;;;;;;25.55;6.10;;;21.60;57.80;;;;;;4980811;28;20066;-50
2022/07/14 06:29:06;;;;;;;19.40;5.63;;;21.60;58.00;;;;;;4981268;28;21001;-49
2022/07/14 06:31:35;;;;;;;19.98;5.93;;;21.60;58.10;;;;;;4982794;28;20057;-50
2022/07/14 06:34:03;;;;;;;17.20;5.07;;;21.60;58.00;;;;;;4985132;28;20058;-47
2022/07/14 06:36:31;;;;;;;21.55;6.07;;;21.60;58.10;;;;;;4980610;28;20050;-55
2022/07/14 06:38:59;;;;;;;18.55;5.80;;;21.60;58.00;;;;;;4980763;28;20050;-52
2022/07/14 06:41:27;;;;;;;18.55;6.40;;;21.60;58.30;;;;;;4984292;28;20058;-49
2022/07/14 06:43:54;;;;;;;22.05;5.85;;;21.60;58.40;;;;;;4983751;28;20062;-51
2022/07/14 06:46:23;;;;;;;20.20;5.47;;;21.60;58.40;;;;;;4981589;28;20054;-53
2022/07/14 06:48:50;;;;;;;16.95;5.53;;;21.60;58.60;;;;;;4980682;28;20054;-49
2022/07/14 06:51:18;;;;;;;15.88;5.32;;;21.60;58.60;;;;;;4983466;28;21187;-48
2022/07/14 06:53:45;;;;;;;14.07;5.55;;;21.60;58.40;;;;;;4982385;28;20723;-48
2022/07/14 06:56:13;;;;;;;17.92;5.80;;;21.60;58.70;;;;;;4982332;28;20061;-56
2022/07/14 06:58:41;;;;;;;23.13;6.43;;;21.60;58.60;;;;;;4983257;28;20051;-52
2022/07/14 07:01:08;;;;;;;19.95;6.30;;;21.60;58.50;;;;;;4981570;28;20134;-51
2022/07/14 07:03:37;;;;;;;26.98;7.30;;;21.60;58.40;;;;;;4982106;28;20057;-52
2022/07/14 07:08:49;;;;;;;19.50;5.63;;;21.50;58.60;;;;;;4984701;28;20066;-47
2022/07/14 07:11:16;;;;;;;23.33;6.57;;;21.60;58.80;;;;;;4979759;28;20050;-57
2022/07/14 07:13:44;;;;;;;22.98;6.80;;;21.50;58.90;;;;;;4981584;28;20758;-55
2022/07/14 07:16:12;;;;;;;17.42;5.40;;;21.60;58.80;;;;;;4980151;28;20047;-50
2022/07/14 07:18:41;;;;;;;26.23;6.22;;;21.60;58.80;;;;;;4983355;28;20049;-56
2022/07/14 07:21:12;;;;;;;16.95;5.85;;;21.60;58.90;;;;;;4982046;28;20058;-48
2022/07/14 07:23:44;;;;;;;17.50;6.45;;;21.60;58.60;;;;;;4983128;28;20057;-48
2022/07/14 07:26:12;;;;;;;29.45;6.53;;;21.60;58.50;;;;;;4982434;28;20057;-49
2022/07/14 07:28:40;;;;;;;21.17;6.63;;;21.60;58.60;;;;;;4984313;28;20050;-51
2022/07/14 07:31:07;;;;;;;21.25;6.57;;;21.70;58.90;;;;;;4980825;28;20054;-55
2022/07/14 07:33:35;;;;;;;17.52;6.75;;;21.70;58.50;;;;;;4982287;28;20053;-54
2022/07/14 07:36:04;;;;;;;16.40;6.13;;;21.70;58.40;;;;;;4983103;28;20062;-46
2022/07/14 07:38:32;;;;;;;29.10;8.25;;;21.70;58.20;;;;;;4980351;28;20050;-52
2022/07/14 07:41:02;;;;;;;22.55;7.07;;;21.80;58.20;;;;;;4981488;28;20069;-54
2022/07/14 07:43:29;;;;;;;20.52;7.35;;;21.80;57.90;;;;;;4981550;28;20057;-49
2022/07/14 07:45:57;;;;;;;22.98;6.47;;;21.80;57.90;;;;;;4981583;28;20050;-49
2022/07/14 07:48:25;;;;;;;17.75;5.55;;;21.80;58.10;;;;;;4983177;28;20046;-51
2022/07/14 07:50:55;;;;;;;11.85;4.45;;;21.80;58.50;;;;;;4980626;28;20080;-50
2022/07/14 07:53:24;;;;;;;17.02;6.10;;;21.90;58.50;;;;;;4982802;28;20054;-54
2022/07/14 07:55:52;;;;;;;17.92;6.10;;;22.00;59.10;;;;;;4983054;28;20062;-48
2022/07/14 07:58:20;;;;;;;20.70;6.20;;;22.10;58.40;;;;;;4983123;28;20047;-56
2022/07/14 08:00:48;;;;;;;16.55;5.93;;;22.10;58.00;;;;;;4984084;28;20513;-49
2022/07/14 08:03:15;;;;;;;19.02;6.28;;;22.10;57.80;;;;;;4980668;28;20061;-53
2022/07/14 08:05:43;;;;;;;21.58;7.03;;;22.20;58.10;;;;;;4982222;28;20065;-47
2022/07/14 08:08:10;;;;;;;22.88;6.70;;;22.20;57.30;;;;;;4981301;28;20058;-55
2022/07/14 08:10:40;;;;;;;19.85;5.72;;;22.20;57.00;;;;;;4980937;28;20491;-53
2022/07/14 08:13:09;;;;;;;24.85;6.82;;;22.20;57.10;;;;;;4980871;28;20414;-49
2022/07/14 08:15:37;;;;;;;23.85;7.07;;;22.20;56.80;;;;;;4979071;28;20051;-51
2022/07/14 08:18:05;;;;;;;19.95;5.80;;;22.30;56.60;;;;;;4982096;28;20058;-56
2022/07/14 08:20:33;;;;;;;22.15;6.80;;;22.20;56.40;;;;;;4983644;28;20062;-53
2022/07/14 08:23:01;;;;;;;22.17;6.80;;;22.20;56.40;;;;;;4974925;28;20061;-52
2022/07/14 08:25:29;;;;;;;25.85;6.88;;;22.10;56.30;;;;;;4980937;28;20387;-54
2022/07/14 08:27:58;;;;;;;26.10;7.22;;;22.10;56.20;;;;;;4982757;28;20058;-49
2022/07/14 08:30:26;;;;;;;16.60;5.70;;;22.10;56.80;;;;;;4980320;28;20046;-56
2022/07/14 08:32:53;;;;;;;20.17;7.05;;;22.00;56.90;;;;;;4982056;28;21735;-52
2022/07/14 08:35:23;;;;;;;19.20;8.00;;;22.00;56.70;;;;;;4982263;28;20081;-55
2022/07/14 08:37:50;;;;;;;24.00;6.75;;;21.90;56.50;;;;;;4983986;28;20418;-52
2022/07/14 08:40:20;;;;;;;23.30;7.03;;;21.90;56.50;;;;;;4981882;28;20054;-51
2022/07/14 08:42:50;;;;;;;20.63;6.68;;;21.80;56.90;;;;;;4980707;28;20050;-53
2022/07/14 08:45:21;;;;;;;24.33;5.97;;;21.90;57.20;;;;;;4981793;28;20042;-58
2022/07/14 08:47:50;;;;;;;20.45;6.05;;;21.90;56.70;;;;;;4981716;28;20065;-52
2022/07/14 08:50:19;;;;;;;19.70;6.28;;;21.90;57.10;;;;;;4979847;28;20054;-51
2022/07/14 08:52:48;;;;;;;19.75;6.43;;;22.00;56.50;;;;;;4982722;28;20057;-50
2022/07/14 08:55:17;;;;;;;23.30;7.32;;;22.00;56.60;;;;;;4981495;28;20122;-54
2022/07/14 08:57:45;;;;;;;17.25;5.88;;;22.00;56.20;;;;;;4981867;28;20057;-59
2022/07/14 09:00:15;;;;;;;20.63;6.40;;;22.00;56.20;;;;;;4980036;28;20868;-55
2022/07/14 09:02:49;;;;;;;22.63;6.50;;;22.00;56.70;;;;;;4981482;28;20058;-54
2022/07/14 09:05:17;;;;;;;18.35;5.50;;;22.00;57.00;;;;;;4979754;28;20061;-56
2022/07/14 09:07:44;;;;;;;17.20;5.50;;;22.10;56.60;;;;;;4978078;28;20120;-51
2022/07/14 09:10:14;;;;;;;18.65;5.65;;;22.00;56.40;;;;;;4982393;28;20050;-57
2022/07/14 09:12:42;;;;;;;19.92;5.20;;;22.00;55.50;;;;;;4977813;28;20050;-57
2022/07/14 09:18:20;;;;;;;22.30;5.50;;;22.20;56.40;;;;;;4923262;29;20067;-54
2022/07/14 09:20:48;;;;;;;21.30;5.88;;;22.30;56.00;;;;;;4920417;29;20500;-48
2022/07/14 09:23:26;;;;;;;15.68;4.88;;;22.30;55.40;;;;;;4951522;28;20058;-52
2022/07/14 09:26:10;;;;;;;12.90;3.92;;;22.40;55.40;;;;;;4979568;28;20518;-49
2022/07/14 09:28:40;;;;;;;16.77;4.35;;;22.50;54.90;;;;;;4981687;28;20062;-53
2022/07/14 09:31:25;;;;;;;20.15;4.68;;;22.60;54.10;;;;;;4978098;28;20054;-51
2022/07/14 09:33:56;;;;;;;15.48;3.92;;;22.70;53.70;;;;;;4980038;28;20495;-50
2022/07/14 09:36:26;;;;;;;18.38;4.80;;;22.80;53.30;;;;;;4980975;28;20418;-52
2022/07/14 09:38:57;;;;;;;14.85;4.68;;;22.80;52.30;;;;;;4978932;28;20506;-48
2022/07/14 09:41:26;;;;;;;13.57;3.45;;;22.90;51.90;;;;;;4982757;28;20502;-50
2022/07/14 09:44:13;;;;;;;14.85;4.43;;;22.90;50.00;;;;;;4979863;28;20058;-52
2022/07/14 09:46:54;;;;;;;13.88;3.67;;;22.90;50.00;;;;;;4978525;28;20059;-49
2022/07/14 09:49:26;;;;;;;16.92;4.38;;;22.90;49.70;;;;;;4979817;28;20053;-48
2022/07/14 09:51:59;;;;;;;10.95;3.17;;;23.00;49.40;;;;;;4976529;28;20054;-48
2022/07/14 09:54:56;;;;;;;10.93;3.25;;;23.10;49.80;;;;;;4979754;28;20054;-52
2022/07/14 09:57:26;;;;;;;14.32;3.45;;;23.10;48.80;;;;;;4977680;28;20046;-51
2022/07/14 09:59:57;;;;;;;8.70;2.80;;;23.10;47.80;;;;;;4979995;28;20054;-48
2022/07/14 10:02:28;;;;;;;8.75;2.88;;;23.10;48.30;;;;;;4981977;28;20054;-50
2022/07/14 10:05:01;;;;;;;7.72;2.90;;;23.20;48.70;;;;;;4983218;28;20051;-50
2022/07/14 10:07:34;;;;;;;13.55;2.90;;;23.20;48.60;;;;;;4984914;28;20084;-51
2022/07/14 10:10:05;;;;;;;20.27;4.18;;;23.30;48.50;;;;;;4983895;28;20428;-55
2022/07/14 10:12:33;;;;;;;15.15;3.70;;;23.40;47.90;;;;;;4986151;28;20069;-52
2022/07/14 10:15:03;;;;;;;9.88;3.22;;;23.40;47.70;;;;;;4986028;28;20060;-52
2022/07/14 10:17:32;;;;;;;11.23;2.92;;;23.50;48.10;;;;;;4983181;28;20058;-55
2022/07/14 10:20:03;;;;;;;10.27;2.72;;;23.50;46.00;;;;;;4984969;28;20054;-52
2022/07/14 10:22:31;;;;;;;12.30;2.85;;;23.50;45.00;;;;;;4983587;28;20065;-56
2022/07/14 10:24:59;;;;;;;14.10;3.47;;;23.50;45.50;;;;;;4980491;28;20490;-48
2022/07/14 10:27:27;;;;;;;12.88;2.50;;;23.50;46.20;;;;;;4984645;28;20073;-50
2022/07/14 10:29:56;;;;;;;11.77;4.13;;;23.50;46.10;;;;;;4984566;28;20050;-50
2022/07/14 10:32:38;;;;;;;12.15;2.97;;;23.60;45.70;;;;;;4983259;28;20513;-52
2022/07/14 10:35:33;;;;;;;8.30;3.13;;;23.60;44.10;;;;;;4984178;28;20065;-53
2022/07/14 10:38:18;;;;;;;;;;;23.70;44.80;;;;;;4982577;28;20054;-51
2022/07/14 10:40:48;;;;;;;;;;;23.80;44.20;;;;;;4975284;28;19933;-55
2022/07/14 10:43:19;;;;;;;14.32;2.85;;;23.80;44.40;;;;;;4983389;28;19937;-56
2022/07/14 10:45:48;;;;;;;7.72;2.35;;;23.90;43.40;;;;;;4976545;28;20073;-60
2022/07/14 10:48:29;;;;;;;14.18;3.17;;;23.90;44.30;;;;;;4980464;28;20058;-57
2022/07/14 10:51:21;;;;;;;8.60;2.75;;;23.90;43.20;;;;;;4983741;28;20058;-54
2022/07/14 10:54:08;;;;;;;13.52;2.58;;;23.90;42.80;;;;;;4978418;28;20050;-58
2022/07/14 10:56:36;;;;;;;11.02;3.00;;;23.80;42.30;;;;;;4981849;28;20553;-51
2022/07/14 10:59:32;;;;;;;6.72;2.35;;;23.80;42.90;;;;;;4979464;28;20050;-53
2022/07/14 11:02:36;;;;;;;10.25;2.22;;;23.90;43.80;;;;;;4981843;28;20065;-56
2022/07/14 11:05:11;;;;;;;11.65;2.67;;;24.00;44.10;;;;;;4981010;28;20058;-53
2022/07/14 11:07:44;;;;;;;12.73;2.80;;;24.10;43.50;;;;;;4980403;28;20610;-54
2022/07/14 11:10:45;;;;;;;11.13;2.67;;;24.10;42.90;;;;;;4984156;28;20050;-57
2022/07/14 11:13:17;;;;;;;12.55;2.88;;;24.10;43.20;;;;;;4982993;28;20057;-51
2022/07/14 11:15:46;;;;;;;12.43;2.40;;;24.20;43.10;;;;;;4980192;28;20062;-48
2022/07/14 11:18:34;;;;;;;16.92;3.20;;;24.20;42.70;;;;;;4983238;28;20058;-56
2022/07/14 11:21:06;;;;;;;11.32;3.22;;;24.20;42.60;;;;;;4983744;28;20414;-54
2022/07/14 11:23:37;;;;;;;14.93;3.17;;;24.20;42.90;;;;;;4981015;28;20406;-54
2022/07/14 11:26:07;;;;;;;15.25;2.78;;;24.30;42.20;;;;;;4982467;28;20076;-54
2022/07/14 11:28:38;;;;;;;8.77;2.30;;;24.30;41.60;;;;;;4982422;28;20058;-56
2022/07/14 11:31:10;;;;;;;9.15;2.53;;;24.40;41.50;;;;;;4982230;28;20066;-51
2022/07/14 11:36:17;;;;;;;9.63;2.00;;;24.40;41.20;;;;;;4983302;28;20054;-60
2022/07/14 11:36:28;;;;;;;12.50;2.50;;;24.50;40.10;;;;;;4980685;28;20429;-52
2022/07/14 11:39:24;;;;;;;8.45;2.22;;;24.60;38.70;;;;;;4980283;28;20063;-50
2022/07/14 11:42:02;;;;;;;5.47;2.00;;;24.70;40.10;;;;;;4977382;28;20069;-50
2022/07/14 11:44:49;;;;;;;7.35;1.85;;;24.90;39.60;;;;;;4981228;28;20054;-49
2022/07/14 11:47:18;;;;;;;9.30;2.45;;;24.90;36.90;;;;;;4980962;28;20062;-49
2022/07/14 11:49:55;;;;;;;7.07;1.90;;;25.00;38.10;;;;;;4983068;28;20062;-56
2022/07/14 11:52:28;;;;;;;10.82;2.00;;;25.00;36.90;;;;;;4983798;28;20506;-57
2022/07/14 11:54:58;;;;;;;6.90;2.07;;;25.10;36.40;;;;;;4984400;28;20069;-60
2022/07/14 11:57:27;;;;;;;5.07;1.85;;;25.10;36.90;;;;;;4983504;28;20058;-53
2022/07/14 12:00:04;;;;;;;9.32;2.10;;;25.20;36.70;;;;;;4981880;28;20054;-51
2022/07/14 12:02:32;;;;;;;7.97;1.60;;;25.20;35.10;;;;;;4982126;28;20065;-54
2022/07/14 12:05:02;;;;;;;7.15;2.30;;;25.20;34.80;;;;;;4983665;28;20065;-50
2022/07/14 12:07:45;;;;;;;9.35;1.98;;;25.30;34.60;;;;;;4983264;28;20490;-49
2022/07/14 12:10:15;;;;;;;11.45;2.15;;;25.30;35.20;;;;;;4983214;28;20053;-54
2022/07/14 12:12:45;;;;;;;7.03;2.00;;;25.30;35.60;;;;;;4983214;28;20062;-58
2022/07/14 12:15:22;;;;;;;11.73;2.50;;;25.40;34.30;;;;;;4984228;28;20062;-55
2022/07/14 12:17:51;;;;;;;9.68;2.00;;;25.40;35.10;;;;;;4982785;28;20050;-57
2022/07/14 12:20:19;;;;;;;12.57;2.60;;;25.40;33.80;;;;;;4983198;28;20054;-56
2022/07/14 12:22:51;;;;;;;8.60;2.42;;;25.50;34.90;;;;;;4981848;28;20494;-56
2022/07/14 12:25:27;;;;;;;9.27;2.22;;;25.50;34.80;;;;;;4983403;28;20414;-54
2022/07/14 12:27:55;;;;;;;6.80;1.67;;;25.50;34.70;;;;;;4982511;28;20601;-54
2022/07/14 12:30:24;;;;;;;5.30;1.88;;;25.50;35.30;;;;;;4982169;28;20054;-57
2022/07/14 12:32:53;;;;;;;9.00;1.90;;;25.50;34.40;;;;;;4982451;28;20086;-54
2022/07/14 12:35:22;;;;;;;6.82;2.22;;;25.60;35.30;;;;;;4982740;28;20054;-59
2022/07/14 12:37:51;;;;;;;7.32;1.73;;;25.60;33.50;;;;;;4984056;28;20061;-51
2022/07/14 12:40:20;;;;;;;9.00;2.08;;;25.60;33.90;;;;;;4983080;28;20422;-51
2022/07/14 12:42:49;;;;;;;6.85;2.03;;;25.60;33.40;;;;;;4982398;28;20453;-48
2022/07/14 12:45:17;;;;;;;14.50;2.00;;;25.70;33.30;;;;;;4982646;28;20066;-53
2022/07/14 12:47:51;;;;;;;7.03;2.20;;;25.70;32.70;;;;;;4980292;28;20050;-55
2022/07/14 12:50:22;;;;;;;6.63;1.95;;;25.70;33.10;;;;;;4979244;28;20058;-55
2022/07/14 12:52:52;;;;;;;8.25;2.22;;;25.70;33.80;;;;;;4981784;28;20058;-52
2022/07/14 12:55:44;;;;;;;9.25;2.30;;;25.80;33.60;;;;;;4982779;28;20054;-52
2022/07/14 12:58:14;;;;;;;8.63;2.75;;;25.80;33.20;;;;;;4980893;28;20053;-46
2022/07/14 13:00:44;;;;;;;10.43;2.15;;;25.90;33.70;;;;;;4981581;28;20050;-52
2022/07/14 13:03:14;;;;;;;7.20;2.13;;;25.90;34.50;;;;;;4981963;28;20050;-48